Time;durP1;ratioP1;P1;durP2;ratioP2;P2;SDS_P1;SDS_P2;PMS_P1;PMS_P2;Temp;Humidity;BMP_temperature;BMP_pressure;BME280_temperature;BME280_humidity;BME280_pressure;Samples;Min_cycle;Max_cycle;Signal;HPM_P1;HPM_P2
2021/12/19 00:00:45;;;;;;;;;51.25;38.25;;;;;7.75;74.45;103343.72;5091522;27;50155;-72
2021/12/19 00:11:05;;;;;;;;;42.00;39.25;;;;;7.63;74.30;103311.47;5092116;27;49897;-66
2021/12/19 00:13:31;;;;;;;;;41.50;35.50;;;;;7.66;75.07;103329.97;5091777;27;49800;-66
2021/12/19 00:15:57;;;;;;;;;41.75;35.00;;;;;7.70;74.77;103320.66;5091451;27;50506;-65
2021/12/19 00:18:23;;;;;;;;;25.75;21.25;;;;;7.71;74.90;103309.38;5091546;27;49805;-65
2021/12/19 00:20:48;;;;;;;;;37.25;35.50;;;;;7.62;74.72;103307.00;5091590;27;49917;-65
2021/12/19 00:23:15;;;;;;;;;38.75;37.00;;;;;7.60;75.01;103298.16;5091967;27;49989;-66
2021/12/19 00:25:40;;;;;;;;;47.00;40.50;;;;;7.62;74.56;103304.41;5091098;27;51149;-65
2021/12/19 00:28:06;;;;;;;;;35.50;35.00;;;;;7.68;74.95;103306.56;5090753;27;49922;-66
2021/12/19 00:30:32;;;;;;;;;39.00;30.25;;;;;7.66;75.14;103296.00;5090875;27;49807;-66
2021/12/19 00:32:58;;;;;;;;;38.50;33.75;;;;;7.53;75.05;103275.00;5089425;27;50059;-65
2021/12/19 00:35:24;;;;;;;;;38.00;34.25;;;;;7.63;74.90;103292.25;5090451;27;50678;-66
2021/12/19 00:37:49;;;;;;;;;41.25;36.25;;;;;7.65;74.30;103296.78;5091806;27;49896;-65
2021/12/19 00:40:15;;;;;;;;;42.50;38.00;;;;;7.64;75.01;103291.47;5091350;27;49819;-65
2021/12/19 00:42:43;;;;;;;;;44.00;34.75;;;;;7.68;75.32;103296.09;5091400;27;49691;-65
2021/12/19 00:45:26;;;;;;;;;26.00;21.75;;;;;7.14;74.93;103202.41;5091526;27;50710;-65
2021/12/19 00:47:51;;;;;;;;;40.25;37.50;;;;;7.57;74.60;103271.78;5091445;27;49757;-65
2021/12/19 00:50:17;;;;;;;;;34.25;26.50;;;;;7.58;75.23;103278.84;5091039;27;49737;-65
2021/12/19 00:52:46;;;;;;;;;33.50;31.25;;;;;7.47;75.56;103271.94;5091605;27;49816;-65
2021/12/19 00:55:12;;;;;;;;;39.25;28.25;;;;;7.00;75.62;103195.28;5090952;27;49593;-65
2021/12/19 00:57:38;;;;;;;;;44.50;38.50;;;;;7.50;75.10;103279.06;5091307;27;49674;-65
2021/12/19 01:00:07;;;;;;;;;34.25;30.00;;;;;7.50;76.03;103282.59;5091423;27;49778;-65
2021/12/19 01:02:33;;;;;;;;;31.75;30.75;;;;;7.52;75.12;103277.47;5090211;27;49931;-65
2021/12/19 01:04:59;;;;;;;;;32.75;25.75;;;;;7.48;76.26;103281.56;5091211;27;50930;-65
2021/12/19 01:07:24;;;;;;;;;35.25;31.00;;;;;7.41;75.51;103280.22;5090775;27;49771;-65
2021/12/19 01:09:50;;;;;;;;;38.00;27.50;;;;;7.46;75.73;103283.19;5091232;27;49916;-66
2021/12/19 01:12:15;;;;;;;;;38.25;33.75;;;;;7.43;76.04;103278.66;5090267;27;49987;-65
2021/12/19 01:14:41;;;;;;;;;35.50;32.00;;;;;7.36;76.67;103283.28;5090355;27;49832;-65
2021/12/19 01:17:07;;;;;;;;;28.50;27.00;;;;;7.33;76.29;103263.06;5090827;27;49836;-65
2021/12/19 01:19:33;;;;;;;;;32.75;31.75;;;;;7.40;75.92;103278.41;5091284;27;49735;-65
2021/12/19 01:21:59;;;;;;;;;35.50;31.75;;;;;7.44;76.13;103283.06;5091347;27;49753;-65
2021/12/19 01:24:24;;;;;;;;;35.75;29.50;;;;;7.44;76.38;103271.72;5090745;27;50752;-65
2021/12/19 01:26:49;;;;;;;;;32.00;27.00;;;;;7.40;75.75;103265.31;5091213;27;50034;-65
2021/12/19 01:29:15;;;;;;;;;30.75;28.00;;;;;7.54;76.24;103271.59;5090770;27;49828;-65
2021/12/19 01:31:41;;;;;;;;;22.00;19.75;;;;;7.55;76.20;103273.41;5091270;27;50111;-65
2021/12/19 01:34:07;;;;;;;;;37.50;29.75;;;;;7.32;76.32;103245.56;5090333;27;50642;-65
2021/12/19 01:36:32;;;;;;;;;33.00;30.25;;;;;7.36;76.53;103278.06;5089562;27;49980;-65
2021/12/19 01:38:58;;;;;;;;;33.50;29.75;;;;;7.29;76.36;103279.31;5090597;27;49800;-65
2021/12/19 01:41:24;;;;;;;;;29.25;26.00;;;;;7.29;76.53;103276.69;5090211;27;49935;-65
2021/12/19 01:43:49;;;;;;;;;34.75;29.25;;;;;7.36;76.23;103276.38;5090214;27;50117;-66
2021/12/19 01:46:14;;;;;;;;;29.25;24.25;;;;;7.29;77.25;103270.56;5090384;27;49820;-65
2021/12/19 01:48:40;;;;;;;;;30.75;28.25;;;;;7.32;76.86;103273.41;5090861;27;50208;-64
2021/12/19 01:51:06;;;;;;;;;32.25;24.25;;;;;7.32;76.64;103273.41;5091082;27;49979;-65
2021/12/19 01:53:31;;;;;;;;;26.75;25.50;;;;;7.08;76.92;103229.00;5090345;27;50600;-65
2021/12/19 01:55:57;;;;;;;;;19.25;17.75;;;;;7.13;76.70;103240.69;5090475;27;49896;-65
2021/12/19 01:58:23;;;;;;;;;26.50;19.25;;;;;6.90;76.50;103183.25;5090522;27;49766;-71
2021/12/19 02:00:55;;;;;;;;;29.50;23.50;;;;;7.03;76.38;103208.53;5090910;27;49891;-68
2021/12/19 02:03:22;;;;;;;;;20.00;16.25;;;;;7.32;76.54;103268.16;5089671;27;49646;-65
2021/12/19 02:05:48;;;;;;;;;31.00;24.25;;;;;7.16;77.02;103240.03;5090518;27;49726;-66
2021/12/19 02:08:13;;;;;;;;;30.00;26.50;;;;;7.23;76.68;103247.50;5089222;27;49765;-63
2021/12/19 02:10:40;;;;;;;;;30.75;24.75;;;;;7.31;77.16;103259.41;5090234;27;49825;-63
2021/12/19 02:13:07;;;;;;;;;32.25;26.00;;;;;7.26;76.70;103263.41;5089957;27;50477;-66
2021/12/19 02:15:34;;;;;;;;;26.25;25.00;;;;;7.13;76.88;103222.41;5089931;27;49947;-64
2021/12/19 02:18:07;;;;;;;;;32.50;24.00;;;;;7.34;76.32;103249.22;5089039;27;49842;-66
2021/12/19 02:20:47;;;;;;;;;31.25;25.25;;;;;7.27;76.29;103241.72;5088896;27;49688;-66
2021/12/19 02:23:12;;;;;;;;;32.25;29.75;;;;;7.14;77.09;103249.41;5089959;27;50519;-66
2021/12/19 02:25:39;;;;;;;;;27.75;23.50;;;;;7.18;77.40;103251.50;5090241;27;50252;-66
2021/12/19 02:28:05;;;;;;;;;28.25;24.50;;;;;7.20;77.38;103246.38;5089311;27;49795;-66
2021/12/19 02:30:31;;;;;;;;;30.25;25.50;;;;;6.69;77.46;103165.97;5089526;27;50096;-66
2021/12/19 02:32:56;;;;;;;;;34.00;31.25;;;;;6.74;77.63;103185.50;5088399;27;51446;-63
2021/12/19 02:35:27;;;;;;;;;39.75;31.00;;;;;7.01;77.28;103233.66;5090078;27;49775;-66
2021/12/19 02:40:38;;;;;;;;;48.00;34.25;;;;;7.03;78.15;103240.78;5090098;27;49811;-68
2021/12/19 02:48:33;;;;;;;;;34.50;28.75;;;;;7.03;77.52;103227.72;5090062;27;49828;-63
2021/12/19 02:50:59;;;;;;;;;31.50;29.25;;;;;6.94;78.26;103229.66;5089232;27;49629;-63
2021/12/19 02:53:32;;;;;;;;;34.00;26.75;;;;;7.00;78.06;103219.69;5089689;27;50899;-66
2021/12/19 02:55:59;;;;;;;;;35.25;31.00;;;;;7.04;77.85;103221.72;5089877;27;49882;-65
2021/12/19 02:58:25;;;;;;;;;33.75;29.00;;;;;7.09;77.68;103222.06;5091503;27;49998;-63
2021/12/19 03:00:51;;;;;;;;;25.00;21.00;;;;;7.02;77.07;103220.69;5092801;27;50189;-64
2021/12/19 03:03:16;;;;;;;;;37.75;29.25;;;;;7.00;77.23;103217.06;5092557;27;50423;-64
2021/12/19 03:05:42;;;;;;;;;24.50;24.00;;;;;7.05;77.09;103209.59;5093370;27;49802;-64
2021/12/19 03:08:09;;;;;;;;;33.00;29.25;;;;;6.98;77.14;103191.66;5093402;27;49867;-66
2021/12/19 03:18:43;;;;;;;;;35.25;28.00;;;;;7.15;76.76;103204.25;5092457;27;49873;-64
2021/12/19 03:21:12;;;;;;;;;30.50;26.50;;;;;7.12;77.39;103202.28;5092207;27;50040;-65
2021/12/19 03:23:38;;;;;;;;;30.75;26.50;;;;;7.04;77.40;103181.63;5092924;27;50685;-65
2021/12/19 03:26:04;;;;;;;;;26.50;25.25;;;;;7.14;77.14;103194.56;5092437;27;49727;-64
2021/12/19 03:28:30;;;;;;;;;30.25;24.25;;;;;7.09;76.98;103196.84;5091316;27;49914;-65
2021/12/19 03:30:55;;;;;;;;;22.50;19.75;;;;;7.01;76.20;103179.72;5091887;27;49799;-64
2021/12/19 03:33:20;;;;;;;;;28.50;25.00;;;;;6.96;76.47;103165.41;5091510;27;55346;-65
2021/12/19 03:35:47;;;;;;;;;26.75;22.50;;;;;7.05;76.05;103194.84;5091520;27;49720;-69
2021/12/19 03:38:15;;;;;;;;;27.25;24.50;;;;;7.14;76.40;103199.78;5092736;27;49787;-63
2021/12/19 03:40:45;;;;;;;;;25.75;23.25;;;;;7.15;76.70;103204.25;5093103;27;49915;-63
2021/12/19 03:43:14;;;;;;;;;35.50;33.25;;;;;7.00;76.70;103184.81;5092534;27;50288;-64
2021/12/19 03:45:40;;;;;;;;;31.00;25.25;;;;;6.98;76.93;103169.03;5092747;27;49913;-66
2021/12/19 03:48:10;;;;;;;;;35.75;31.50;;;;;7.20;77.04;103200.25;5092531;27;49793;-64
2021/12/19 03:50:36;;;;;;;;;29.50;24.75;;;;;7.20;76.47;103202.88;5092671;27;49869;-64
2021/12/19 03:53:02;;;;;;;;;27.50;23.75;;;;;7.11;76.42;103184.81;5091281;27;50102;-65
2021/12/19 03:55:28;;;;;;;;;26.25;21.50;;;;;7.09;76.68;103185.50;5092411;27;49777;-64
2021/12/19 03:57:58;;;;;;;;;38.50;28.25;;;;;7.31;77.07;103208.88;5090571;27;49801;-64
2021/12/19 04:00:26;;;;;;;;;27.00;22.50;;;;;7.37;76.34;103207.63;5092074;27;49951;-64
2021/12/19 04:03:05;;;;;;;;;25.75;24.75;;;;;7.25;76.50;103185.84;5091979;27;50481;-64
2021/12/19 04:05:31;;;;;;;;;30.25;24.00;;;;;7.31;76.85;103201.94;5092025;27;49750;-67
2021/12/19 04:07:57;;;;;;;;;29.00;26.50;;;;;7.23;76.82;103196.94;5091755;27;49746;-63
2021/12/19 04:10:23;;;;;;;;;31.75;24.25;;;;;7.18;77.67;103194.00;5092298;27;49727;-63
2021/12/19 04:12:50;;;;;;;;;38.25;33.25;;;;;7.05;77.86;103175.63;5091718;27;50076;-63
2021/12/19 04:15:16;;;;;;;;;33.75;29.00;;;;;7.11;78.03;103190.03;5092064;27;49905;-63
2021/12/19 04:17:41;;;;;;;;;34.25;28.75;;;;;7.12;78.10;103191.84;5091680;27;49663;-63
2021/12/19 04:20:08;;;;;;;;;31.00;27.50;;;;;7.06;78.07;103180.97;5091089;27;49982;-63
2021/12/19 04:22:33;;;;;;;;;31.00;26.25;;;;;7.02;77.64;103189.34;5090800;27;49702;-64
2021/12/19 04:24:59;;;;;;;;;41.00;33.50;;;;;7.01;77.89;103182.31;5092072;27;49813;-63
2021/12/19 04:27:25;;;;;;;;;31.75;26.00;;;;;7.03;78.32;103187.66;5090977;27;50082;-63
2021/12/19 04:29:52;;;;;;;;;28.25;25.25;;;;;7.05;78.63;103188.69;5091708;27;49830;-64
2021/12/19 04:32:18;;;;;;;;;25.00;24.00;;;;;7.04;78.28;103184.25;5091428;27;49882;-63
2021/12/19 04:34:44;;;;;;;;;30.50;21.75;;;;;6.95;77.61;103165.28;5090664;27;50047;-63
2021/12/19 04:37:42;;;;;;;;;27.25;23.50;;;;;6.97;77.82;103163.72;5091936;27;49897;-64
2021/12/19 04:40:30;;;;;;;;;25.25;22.75;;;;;6.95;78.17;103154.84;5085908;27;49844;-63
2021/12/19 04:53:53;;;;;;;;;30.25;27.00;;;;;6.91;78.08;103165.88;5090787;27;50262;-63
2021/12/19 05:15:29;;;;;;;;;22.00;19.75;;;;;7.06;77.62;103152.25;5090094;27;50469;-67
2021/12/19 05:17:59;;;;;;;;;26.00;20.75;;;;;7.07;77.75;103155.75;5090671;27;49808;-64
2021/12/19 05:20:28;;;;;;;;;21.75;18.00;;;;;7.07;77.33;103154.06;5090412;27;50006;-69
2021/12/19 05:22:59;;;;;;;;;24.75;21.25;;;;;7.12;77.54;103151.75;5090443;27;49618;-64
2021/12/19 05:25:25;;;;;;;;;20.75;19.50;;;;;7.13;77.55;103153.56;5090103;27;49691;-68
2021/12/19 05:27:53;;;;;;;;;21.00;16.50;;;;;7.09;77.83;103148.94;5090171;27;49830;-65
2021/12/19 05:30:20;;;;;;;;;21.75;19.50;;;;;7.08;77.73;103149.72;5090727;27;49894;-64
2021/12/19 05:32:48;;;;;;;;;24.00;18.00;;;;;7.10;76.83;103148.13;5091016;27;50011;-64
2021/12/19 05:35:19;;;;;;;;;19.25;14.00;;;;;7.01;77.75;103144.84;5090456;27;49892;-63
2021/12/19 05:45:58;;;;;;;;;13.50;11.25;;;;;7.11;77.22;103137.78;5090421;27;50182;-64
2021/12/19 05:48:24;;;;;;;;;15.75;15.75;;;;;6.95;76.16;103108.78;5090694;27;49831;-67
2021/12/19 05:50:49;;;;;;;;;13.50;13.50;;;;;7.11;76.48;103143.03;5090035;27;50256;-68
2021/12/19 05:53:15;;;;;;;;;11.00;9.00;;;;;6.86;75.87;103114.22;5090705;27;49945;-66
2021/12/19 05:55:41;;;;;;;;;14.00;11.00;;;;;6.74;76.11;103117.63;5086958;27;52125;-70
2021/12/19 05:58:06;;;;;;;;;8.50;7.75;;;;;6.85;76.66;103133.31;5089358;27;49904;-64
2021/12/19 06:00:32;;;;;;;;;12.50;12.50;;;;;6.91;76.70;103139.75;5089790;27;50440;-67
2021/12/19 06:02:58;;;;;;;;;7.00;7.00;;;;;6.86;75.54;103134.22;5090082;27;49841;-63
2021/12/19 06:05:24;;;;;;;;;12.75;11.50;;;;;6.74;76.51;103143.72;5089636;27;49788;-64
2021/12/19 06:07:49;;;;;;;;;8.50;8.50;;;;;6.71;76.88;103139.19;5090194;27;49994;-66
2021/12/19 06:10:15;;;;;;;;;10.50;10.50;;;;;6.11;76.82;103025.97;5090248;27;49740;-66
2021/12/19 06:12:41;;;;;;;;;12.00;10.25;;;;;6.80;76.50;103138.97;5089976;27;49644;-63
2021/12/19 06:15:11;;;;;;;;;14.00;10.00;;;;;6.79;76.73;103131.94;5089254;27;50555;-63
2021/12/19 06:17:38;;;;;;;;;11.00;11.00;;;;;6.79;76.33;103131.94;5088375;27;49713;-63
2021/12/19 06:20:05;;;;;;;;;14.00;11.25;;;;;6.77;76.15;103120.47;5089351;27;50133;-64
2021/12/19 06:22:32;;;;;;;;;12.25;11.50;;;;;6.83;76.30;103128.75;5090380;27;49858;-64
2021/12/19 06:24:58;;;;;;;;;10.75;10.75;;;;;6.83;76.08;103127.03;5089575;27;50654;-63
2021/12/19 06:27:23;;;;;;;;;15.50;13.75;;;;;6.68;76.48;103106.75;5089619;27;49730;-63
2021/12/19 06:29:49;;;;;;;;;13.75;12.50;;;;;6.87;76.46;103130.81;5090324;27;50049;-63
2021/12/19 06:32:15;;;;;;;;;10.75;10.50;;;;;6.89;76.21;103130.09;5089936;27;50048;-64
2021/12/19 06:34:41;;;;;;;;;13.25;9.75;;;;;6.86;75.92;103122.06;5093395;27;50004;-65
2021/12/19 06:37:09;;;;;;;;;13.00;13.00;;;;;6.63;75.53;103097.66;5093272;27;49908;-66
2021/12/19 06:39:35;;;;;;;;;11.50;8.00;;;;;6.89;75.82;103129.19;5092838;27;49887;-64
2021/12/19 06:42:01;;;;;;;;;12.25;11.25;;;;;6.89;75.94;103122.28;5092842;27;49736;-64
2021/12/19 06:44:26;;;;;;;;;11.75;10.50;;;;;6.87;75.59;103126.47;5092668;27;49881;-64
2021/12/19 06:46:52;;;;;;;;;8.00;7.00;;;;;6.72;75.97;103111.38;5093110;27;49774;-63
2021/12/19 06:49:17;;;;;;;;;8.00;7.00;;;;;6.77;76.14;103115.25;5092935;27;49790;-63
2021/12/19 06:51:42;;;;;;;;;9.75;7.50;;;;;6.87;76.22;103134.31;5093050;27;49788;-63
2021/12/19 06:54:08;;;;;;;;;10.25;9.25;;;;;6.50;75.83;103065.44;5092251;27;50916;-64
2021/12/19 06:56:34;;;;;;;;;6.75;4.50;;;;;6.32;75.73;103048.41;5092887;27;49931;-63
2021/12/19 06:59:00;;;;;;;;;9.50;9.00;;;;;6.76;76.11;103132.63;5092750;27;50109;-64
2021/12/19 07:01:25;;;;;;;;;11.00;10.00;;;;;6.78;75.62;103128.41;5093397;27;49855;-65
2021/12/19 07:03:51;;;;;;;;;11.25;9.00;;;;;6.59;75.86;103110.47;5092870;27;49916;-64
2021/12/19 07:06:16;;;;;;;;;11.50;10.25;;;;;6.75;75.64;103130.78;5092054;27;49670;-64
2021/12/19 07:08:41;;;;;;;;;10.50;9.25;;;;;6.78;76.13;103135.34;5093102;27;49581;-64
2021/12/19 07:11:07;;;;;;;;;6.50;6.50;;;;;6.80;75.54;103138.97;5092345;27;50023;-65
2021/12/19 07:13:32;;;;;;;;;9.25;7.50;;;;;6.19;74.81;103050.91;5091375;27;50023;-65
2021/12/19 07:15:58;;;;;;;;;14.75;10.00;;;;;6.57;75.43;103121.63;5093054;27;49949;-65
2021/12/19 07:18:23;;;;;;;;;10.00;8.50;;;;;6.66;75.38;103135.34;5093091;27;49951;-65
2021/12/19 07:20:49;;;;;;;;;9.75;9.75;;;;;6.46;75.56;103126.00;5092995;27;49577;-71
2021/12/19 07:23:17;;;;;;;;;8.25;8.25;;;;;6.10;75.66;103060.66;5091054;27;49826;-66
2021/12/19 07:25:43;;;;;;;;;9.50;8.00;;;;;6.52;75.91;103133.41;5092195;27;49793;-65
2021/12/19 07:28:09;;;;;;;;;7.00;7.00;;;;;6.55;75.70;103125.78;5091776;27;49636;-65
2021/12/19 07:30:36;;;;;;;;;9.25;8.75;;;;;6.37;75.76;103098.31;5092113;27;49955;-65
2021/12/19 07:33:06;;;;;;;;;8.00;7.75;;;;;6.28;76.18;103096.84;5091501;27;50418;-65
2021/12/19 07:35:35;;;;;;;;;10.75;9.25;;;;;6.50;75.83;103133.28;5091410;27;50187;-65
2021/12/19 07:38:03;;;;;;;;;12.00;9.75;;;;;6.46;76.33;103125.09;5092231;27;49862;-67
2021/12/19 07:40:35;;;;;;;;;8.50;8.50;;;;;6.48;76.39;103110.50;5092082;27;49704;-76
2021/12/19 07:43:03;;;;;;;;;11.50;11.50;;;;;6.56;76.52;103120.72;5091522;27;50679;-64
2021/12/19 07:45:32;;;;;;;;;11.50;10.50;;;;;6.21;76.73;103068.50;5091453;27;49800;-65
2021/12/19 07:47:58;;;;;;;;;10.75;8.50;;;;;6.17;76.54;103076.84;5092103;27;49795;-65
2021/12/19 07:50:24;;;;;;;;;11.25;8.75;;;;;6.42;77.02;103107.41;5092365;27;49873;-64
2021/12/19 07:52:49;;;;;;;;;11.50;10.25;;;;;5.31;76.92;102909.56;5090616;27;51442;-65
2021/12/19 07:55:16;;;;;;;;;16.25;15.50;;;;;5.87;76.70;103020.66;5091912;27;49900;-65
2021/12/19 07:57:41;;;;;;;;;15.50;14.75;;;;;6.11;76.64;103071.19;5091128;27;49725;-64
2021/12/19 08:00:10;;;;;;;;;11.50;10.50;;;;;6.29;77.43;103093.44;5092184;27;50060;-65
2021/12/19 08:02:35;;;;;;;;;15.00;13.25;;;;;5.83;77.34;103007.28;5090793;27;49942;-65
2021/12/19 08:05:01;;;;;;;;;11.00;11.00;;;;;6.08;77.18;103031.88;5091079;27;50005;-65
2021/12/19 08:07:26;;;;;;;;;16.50;14.50;;;;;6.42;77.03;103084.84;5091404;27;50044;-67
2021/12/19 08:12:36;;;;;;;;;20.00;13.25;;;;;6.30;76.50;103057.84;5090498;27;49689;-64
2021/12/19 08:15:02;;;;;;;;;19.00;16.00;;;;;5.94;76.10;102993.41;5091376;27;49777;-65
2021/12/19 08:17:28;;;;;;;;;14.25;14.25;;;;;6.78;76.45;103128.41;5090887;27;49908;-65
2021/12/19 08:19:54;;;;;;;;;15.50;10.00;;;;;6.60;76.36;103120.13;5091016;27;49941;-65
2021/12/19 08:22:20;;;;;;;;;16.25;11.75;;;;;6.14;76.65;103040.13;5089766;27;51621;-65
2021/12/19 08:24:47;;;;;;;;;14.00;11.75;;;;;5.50;76.53;102932.66;5091978;27;49771;-65
2021/12/19 08:27:12;;;;;;;;;19.50;16.50;;;;;6.49;76.72;103107.09;5091576;27;49683;-65
2021/12/19 08:29:38;;;;;;;;;17.75;16.50;;;;;6.66;77.30;103118.75;5092075;27;49888;-65
2021/12/19 08:32:03;;;;;;;;;18.00;18.00;;;;;5.55;76.66;102908.78;5091764;27;51010;-65
2021/12/19 08:34:29;;;;;;;;;16.75;15.50;;;;;5.19;75.60;102862.63;5091045;27;49772;-65
2021/12/19 08:36:55;;;;;;;;;19.25;15.25;;;;;6.73;75.91;103153.25;5090628;27;49751;-65
2021/12/19 08:39:20;;;;;;;;;19.75;17.00;;;;;5.97;76.34;102985.78;5090790;27;49896;-65
2021/12/19 08:41:46;;;;;;;;;12.75;11.75;;;;;6.04;75.88;102998.50;5090039;27;50241;-65
2021/12/19 08:44:11;;;;;;;;;12.50;10.50;;;;;6.72;76.35;103120.13;5090852;27;49706;-71
2021/12/19 08:46:38;;;;;;;;;15.50;12.00;;;;;6.59;76.53;103094.81;5090854;27;50039;-65
2021/12/19 08:49:05;;;;;;;;;17.75;15.50;;;;;5.76;76.19;102969.44;5090260;27;50094;-69
2021/12/19 08:51:32;;;;;;;;;20.50;19.50;;;;;6.45;75.90;103079.84;5090660;27;49872;-65
2021/12/19 08:54:00;;;;;;;;;24.50;18.50;;;;;6.73;76.25;103121.03;5091454;27;49830;-65
2021/12/19 08:56:26;;;;;;;;;15.75;14.50;;;;;5.67;76.53;102934.84;5089934;27;49785;-65
2021/12/19 08:58:51;;;;;;;;;21.75;19.00;;;;;6.44;76.91;103070.19;5090517;27;49980;-65
2021/12/19 09:01:17;;;;;;;;;18.25;15.00;;;;;5.60;76.30;102914.38;5090513;27;49896;-65
2021/12/19 09:03:42;;;;;;;;;21.00;17.25;;;;;5.54;76.27;102914.81;5090624;27;49868;-65
2021/12/19 09:06:08;;;;;;;;;18.25;16.50;;;;;6.50;76.50;103067.16;5090591;27;50495;-65
2021/12/19 09:08:33;;;;;;;;;17.75;15.75;;;;;6.77;75.48;103129.22;5091248;27;49740;-65
2021/12/19 09:11:01;;;;;;;;;20.50;18.50;;;;;6.35;76.70;103052.94;5089665;27;50014;-65
2021/12/19 09:13:27;;;;;;;;;16.75;12.75;;;;;5.95;75.91;102996.13;5087414;27;49703;-65
2021/12/19 09:15:53;;;;;;;;;19.75;16.75;;;;;6.83;75.90;103134.88;5090309;27;50018;-64
2021/12/19 09:18:19;;;;;;;;;21.75;16.25;;;;;6.12;75.70;103019.94;5089300;27;49809;-65
2021/12/19 09:20:44;;;;;;;;;22.00;17.25;;;;;5.98;75.47;102965.09;5089493;27;49921;-65
2021/12/19 09:23:11;;;;;;;;;20.00;17.50;;;;;5.64;75.52;102901.66;5090367;27;49916;-65
2021/12/19 09:25:37;;;;;;;;;20.25;17.25;;;;;6.75;75.49;103094.22;5090651;27;49842;-65
2021/12/19 09:28:03;;;;;;;;;20.25;17.50;;;;;6.36;75.63;103013.94;5090454;27;49749;-65
2021/12/19 09:30:29;;;;;;;;;13.50;11.25;;;;;6.62;75.83;103059.31;5089271;27;52546;-66
2021/12/19 09:32:55;;;;;;;;;25.25;19.25;;;;;5.43;75.11;102843.66;5089725;27;49804;-66
2021/12/19 09:35:21;;;;;;;;;21.00;19.50;;;;;7.10;75.16;103114.19;5090154;27;49776;-68
2021/12/19 09:37:47;;;;;;;;;15.00;14.00;;;;;6.56;74.82;103008.50;5090582;27;49750;-66
2021/12/19 09:40:19;;;;;;;;;17.00;15.00;;;;;6.27;75.22;102976.72;5089667;27;50895;-64
2021/12/19 09:42:49;;;;;;;;;23.00;20.25;;;;;6.40;74.98;103004.63;5089578;27;50171;-66
2021/12/19 09:45:16;;;;;;;;;23.75;16.00;;;;;6.55;75.61;103055.31;5089462;27;49958;-64
2021/12/19 09:47:42;;;;;;;;;12.00;10.75;;;;;6.76;75.16;103074.28;5090593;27;49834;-66
2021/12/19 09:50:09;;;;;;;;;18.25;15.00;;;;;6.86;75.83;103092.44;5090565;27;49901;-64
2021/12/19 09:52:35;;;;;;;;;18.00;16.25;;;;;5.38;75.33;102828.47;5089195;27;49817;-65
2021/12/19 09:55:01;;;;;;;;;21.75;18.00;;;;;5.78;76.49;102900.06;5090117;27;50218;-66
2021/12/19 09:57:27;;;;;;;;;15.25;14.00;;;;;7.06;75.44;103120.00;5089505;27;49845;-66
2021/12/19 09:59:52;;;;;;;;;17.25;13.75;;;;;7.12;75.21;103112.56;5089913;27;50888;-66
2021/12/19 10:02:18;;;;;;;;;17.25;16.00;;;;;7.16;75.07;103109.41;5089054;27;49670;-66
2021/12/19 10:04:45;;;;;;;;;11.50;10.00;;;;;6.45;75.15;102985.91;5089808;27;49936;-64
2021/12/19 10:07:23;;;;;;;;;15.50;15.50;;;;;6.91;74.49;103059.72;5091639;27;49954;-65
2021/12/19 10:10:11;;;;;;;;;19.75;19.00;;;;;7.15;74.29;103086.69;5092755;27;50800;-65
2021/12/19 10:12:48;;;;;;;;;20.00;15.00;;;;;7.19;74.20;103096.56;5085515;27;49795;-65
2021/12/19 10:15:14;;;;;;;;;24.75;21.50;;;;;7.30;75.04;103092.09;5093895;27;49777;-66
2021/12/19 10:17:40;;;;;;;;;20.75;19.00;;;;;7.02;73.73;103019.59;5094226;27;50047;-67
2021/12/19 10:20:08;;;;;;;;;20.50;16.50;;;;;6.80;73.74;102988.44;5093215;27;50612;-66
2021/12/19 10:22:51;;;;;;;;;27.50;19.50;;;;;7.41;73.84;103078.97;5093170;27;49824;-65
2021/12/19 10:25:21;;;;;;;;;27.00;24.00;;;;;6.76;73.44;102969.88;5093938;27;49872;-69
2021/12/19 10:27:56;;;;;;;;;26.00;26.00;;;;;7.53;73.70;103084.19;5093878;27;49766;-75
2021/12/19 10:30:21;;;;;;;;;21.75;20.75;;;;;7.59;73.04;103075.84;5093721;27;50263;-77
2021/12/19 10:33:01;;;;;;;;;26.75;22.00;;;;;7.62;72.28;103089.13;5097451;27;49804;-75
2021/12/19 10:35:34;;;;;;;;;35.50;32.00;;;;;7.68;73.14;103076.50;5092356;27;50067;-65
2021/12/19 10:38:03;;;;;;;;;32.25;27.00;;;;;7.57;72.77;103061.78;5085915;27;49726;-67
2021/12/19 10:40:29;;;;;;;;;33.00;31.00;;;;;7.62;72.50;103082.19;5087564;27;50598;-68
2021/12/19 10:43:00;;;;;;;;;52.00;41.25;;;;;7.60;72.89;103062.88;5086371;27;49812;-68
2021/12/19 10:45:32;;;;;;;;;30.75;28.50;;;;;7.75;72.12;103071.78;5087251;27;49704;-69
2021/12/19 10:48:14;;;;;;;;;21.75;21.00;;;;;7.77;71.82;103071.91;5091289;27;50147;-67
2021/12/19 10:50:47;;;;;;;;;30.25;30.25;;;;;7.85;71.31;103075.94;5093373;27;50746;-67
2021/12/19 10:53:15;;;;;;;;;33.50;30.00;;;;;7.76;71.60;103062.25;5094719;27;50070;-62
2021/12/19 10:55:43;;;;;;;;;34.00;28.25;;;;;7.78;71.17;103064.97;5093541;27;49707;-66
2021/12/19 10:58:23;;;;;;;;;28.75;25.00;;;;;7.78;71.17;103059.72;5093158;27;49988;-67
2021/12/19 11:01:04;;;;;;;;;27.00;25.25;;;;;7.77;71.63;103055.31;5092030;27;50364;-67
2021/12/19 11:03:41;;;;;;;;;29.75;25.50;;;;;7.69;71.06;103053.06;5092577;27;49850;-67
2021/12/19 11:06:15;;;;;;;;;27.75;25.00;;;;;7.72;70.91;103049.75;5088172;27;49766;-67
2021/12/19 11:08:42;;;;;;;;;24.00;22.25;;;;;7.61;71.94;103025.47;5092617;27;49910;-67
2021/12/19 11:11:08;;;;;;;;;28.75;25.50;;;;;7.83;71.64;103033.09;5092987;27;49766;-67
2021/12/19 11:13:37;;;;;;;;;27.75;23.75;;;;;7.99;70.82;103041.16;5092820;27;49801;-65
2021/12/19 11:16:03;;;;;;;;;35.50;28.25;;;;;7.94;70.11;103013.81;5093398;27;49801;-74
2021/12/19 11:18:29;;;;;;;;;37.50;26.25;;;;;7.74;70.08;102970.63;5090676;27;49867;-64
2021/12/19 11:20:55;;;;;;;;;30.75;22.00;;;;;8.18;70.14;103030.22;5092611;27;50074;-63
2021/12/19 11:23:20;;;;;;;;;24.25;17.00;;;;;8.16;69.94;103020.47;5091318;27;49819;-63
2021/12/19 11:25:46;;;;;;;;;26.75;21.50;;;;;7.27;70.05;102883.78;5091186;27;49629;-71
2021/12/19 11:28:12;;;;;;;;;26.50;25.50;;;;;7.60;70.07;102915.59;5091156;27;50281;-68
2021/12/19 11:30:38;;;;;;;;;30.50;25.25;;;;;7.03;69.44;102760.25;5090635;27;51102;-67
2021/12/19 11:33:21;;;;;;;;;27.75;20.75;;;;;8.39;69.27;103003.69;5090868;27;50162;-68
2021/12/19 11:35:50;;;;;;;;;25.75;22.50;;;;;8.46;69.63;103011.16;5090997;27;50110;-65
2021/12/19 11:38:21;;;;;;;;;28.00;25.75;;;;;7.45;68.58;102850.16;5091122;27;50149;-70
2021/12/19 11:40:47;;;;;;;;;28.75;27.25;;;;;8.33;69.57;102999.84;5090415;27;52216;-70
2021/12/19 11:43:14;;;;;;;;;32.00;29.50;;;;;7.61;69.21;102857.28;5090502;27;49858;-70
2021/12/19 11:45:46;;;;;;;;;31.00;24.25;;;;;7.70;69.26;102897.09;5090444;27;49980;-70
2021/12/19 11:48:16;;;;;;;;;34.75;25.75;;;;;8.36;70.09;102990.41;5092601;27;49693;-70
2021/12/19 11:50:48;;;;;;;;;24.50;22.00;;;;;6.78;69.34;102713.34;5091893;27;49987;-71
2021/12/19 11:53:16;;;;;;;;;23.75;21.25;;;;;8.41;68.76;102994.25;5090572;27;49963;-71
2021/12/19 11:55:44;;;;;;;;;25.75;22.75;;;;;8.36;69.90;102972.09;5090457;27;49829;-71
2021/12/19 11:58:11;;;;;;;;;29.50;27.50;;;;;8.45;69.64;102989.28;5089281;27;50053;-72
2021/12/19 12:00:50;;;;;;;;;23.50;21.50;;;;;7.64;69.60;102831.38;5091849;27;49976;-71
2021/12/19 12:03:15;;;;;;;;;27.00;24.75;;;;;8.35;69.35;102941.50;5090675;27;49917;-76
2021/12/19 12:05:46;;;;;;;;;28.25;25.75;;;;;6.92;69.50;102695.97;5094567;27;49683;-73
2021/12/19 12:08:17;;;;;;;;;34.00;28.00;;;;;7.40;69.64;102809.72;5091067;27;49861;-68
2021/12/19 12:10:53;;;;;;;;;27.50;26.50;;;;;8.41;70.49;102950.66;5091576;27;49976;-69
2021/12/19 12:13:26;;;;;;;;;22.75;17.00;;;;;6.54;70.29;102633.38;5091403;27;49750;-67
2021/12/19 12:16:00;;;;;;;;;25.25;21.50;;;;;6.96;68.68;102723.22;5084609;27;49732;-69
2021/12/19 12:18:38;;;;;;;;;25.00;22.50;;;;;8.32;69.83;102935.22;5092284;27;49829;-69
2021/12/19 12:21:41;;;;;;;;;28.50;23.75;;;;;8.51;69.24;102945.19;5091587;27;49858;-69
2021/12/19 12:24:07;;;;;;;;;30.25;24.25;;;;;8.47;69.69;102937.94;5091549;27;49890;-69
2021/12/19 12:26:47;;;;;;;;;24.25;23.50;;;;;8.47;69.73;102937.03;5090775;27;49761;-69